createdAt,value
2018-09-03T00:01:56.158Z,13.38
2018-09-03T00:04:23.815Z,12.25
2018-09-03T00:06:51.379Z,15.43
2018-09-03T00:09:18.968Z,18.27
2018-09-03T00:11:46.636Z,23.83
2018-09-03T00:14:14.467Z,15.68
2018-09-03T00:16:42.170Z,18.73
2018-09-03T00:19:09.759Z,21.20
2018-09-03T00:21:37.328Z,19.92
2018-09-03T00:24:05.026Z,23.63
2018-09-03T00:26:32.593Z,17.67
2018-09-03T00:29:00.206Z,15.43
2018-09-03T00:31:33.394Z,12.47
2018-09-03T00:34:06.755Z,11.10
2018-09-03T00:36:40.080Z,12.23
2018-09-03T00:39:13.414Z,10.60
2018-09-03T00:41:46.622Z,15.00
2018-09-03T00:44:19.861Z,15.43
2018-09-03T00:46:53.544Z,20.15
2018-09-03T00:49:21.201Z,17.40
2018-09-03T00:51:48.791Z,14.38
2018-09-03T00:54:16.420Z,15.18
2018-09-03T00:56:44.028Z,15.03
2018-09-03T00:59:11.816Z,16.17
2018-09-03T01:01:39.352Z,17.20
2018-09-03T01:04:06.925Z,16.82
2018-09-03T01:06:34.580Z,16.17
2018-09-03T01:09:02.215Z,19.32
2018-09-03T01:11:29.882Z,20.75
2018-09-03T01:13:57.530Z,18.02
2018-09-03T01:16:25.107Z,20.70
2018-09-03T01:18:55.277Z,21.68
2018-09-03T01:21:23.347Z,17.82
2018-09-03T01:23:50.963Z,19.00
2018-09-03T01:26:18.593Z,14.47
2018-09-03T01:28:46.261Z,18.70
2018-09-03T01:31:17.653Z,18.37
2018-09-03T01:33:46.088Z,16.77
2018-09-03T01:36:13.640Z,23.45
2018-09-03T01:38:41.200Z,14.70
2018-09-03T01:41:09.096Z,13.20
2018-09-03T01:43:36.644Z,10.85
2018-09-03T01:46:04.443Z,9.68
2018-09-03T01:48:32.021Z,9.38
2018-09-03T01:50:59.588Z,10.15
2018-09-03T01:53:27.148Z,14.07
2018-09-03T01:55:55.019Z,11.22
2018-09-03T01:58:22.648Z,11.15
2018-09-03T02:00:50.287Z,12.10
2018-09-03T02:03:17.910Z,17.23
2018-09-03T02:05:45.513Z,16.45
2018-09-03T02:08:13.071Z,18.50
2018-09-03T02:10:40.916Z,18.92
2018-09-03T02:13:08.560Z,19.80
2018-09-03T02:15:36.136Z,14.75
2018-09-03T02:18:03.828Z,13.43
2018-09-03T02:20:31.444Z,19.70
2018-09-03T02:22:59.137Z,19.02
2018-09-03T02:25:27.003Z,16.32
2018-09-03T02:27:54.597Z,17.60
2018-09-03T02:30:22.195Z,12.53
2018-09-03T02:32:49.881Z,14.38
2018-09-03T02:35:17.764Z,17.80
2018-09-03T02:37:45.595Z,15.23
2018-09-03T02:40:13.236Z,16.02
2018-09-03T02:42:40.868Z,17.00
2018-09-03T02:45:09.296Z,13.98
2018-09-03T02:47:36.933Z,12.03
2018-09-03T02:50:04.764Z,10.72
2018-09-03T02:52:32.412Z,14.28
2018-09-03T02:55:00.032Z,19.92
2018-09-03T02:57:27.606Z,17.50
2018-09-03T02:59:55.304Z,16.73
2018-09-03T03:02:22.881Z,14.45
2018-09-03T03:04:50.452Z,14.70
2018-09-03T03:07:18.076Z,11.20
2018-09-03T03:09:45.802Z,9.80
2018-09-03T03:12:17.996Z,13.20
2018-09-03T03:14:45.684Z,15.20
2018-09-03T03:17:13.286Z,14.87
2018-09-03T03:19:40.901Z,16.00
2018-09-03T03:22:08.424Z,11.22
2018-09-03T03:24:35.967Z,10.58
2018-09-03T03:27:03.636Z,10.20
2018-09-03T03:29:31.380Z,10.23
2018-09-03T03:31:58.928Z,14.95
2018-09-03T03:34:26.485Z,10.88
2018-09-03T03:36:54.268Z,9.18
2018-09-03T03:39:21.831Z,15.70
2018-09-03T03:41:49.377Z,11.48
2018-09-03T03:44:17.355Z,12.75
2018-09-03T03:46:45.220Z,10.98
2018-09-03T03:49:12.842Z,11.03
2018-09-03T03:51:40.428Z,18.37
2018-09-03T03:54:07.982Z,22.87
2018-09-03T03:56:35.543Z,24.55
2018-09-03T03:59:03.251Z,24.23
2018-09-03T04:01:30.845Z,25.10
2018-09-03T04:03:58.456Z,25.30
2018-09-03T04:06:25.996Z,19.57
2018-09-03T04:08:53.731Z,15.78
2018-09-03T04:11:21.367Z,14.20
2018-09-03T04:13:48.903Z,12.23
2018-09-03T04:16:16.742Z,10.95
2018-09-03T04:18:44.320Z,10.78
2018-09-03T04:21:11.909Z,12.75
2018-09-03T04:23:39.527Z,10.58
2018-09-03T04:26:07.056Z,15.08
2018-09-03T04:28:34.637Z,17.27
2018-09-03T04:31:02.308Z,22.73
2018-09-03T04:33:29.844Z,26.75
2018-09-03T04:35:57.419Z,20.05
2018-09-03T04:38:25.202Z,27.00
2018-09-03T04:40:52.748Z,26.27
2018-09-03T04:43:20.416Z,25.75
2018-09-03T04:45:47.991Z,23.07
2018-09-03T04:48:15.659Z,23.30
2018-09-03T04:50:43.230Z,25.15
2018-09-03T04:53:10.911Z,19.17
2018-09-03T04:55:38.491Z,21.35
2018-09-03T04:58:06.136Z,18.20
2018-09-03T05:00:33.739Z,17.70
2018-09-03T05:03:01.320Z,20.63
2018-09-03T05:05:28.855Z,17.52
2018-09-03T05:07:56.424Z,21.25
2018-09-03T05:10:23.968Z,20.02
2018-09-03T05:12:51.536Z,18.30
2018-09-03T05:15:19.272Z,16.95
2018-09-03T05:17:46.900Z,14.47
2018-09-03T05:20:14.669Z,17.20
2018-09-03T05:22:42.284Z,16.17
2018-09-03T05:25:09.802Z,17.17
2018-09-03T05:27:37.513Z,16.80
2018-09-03T05:30:05.890Z,16.20
2018-09-03T05:32:33.432Z,13.50
2018-09-03T05:35:01.028Z,16.27
2018-09-03T05:37:28.568Z,15.25
2018-09-03T05:39:56.173Z,19.15
2018-09-03T05:42:23.725Z,24.98
2018-09-03T05:44:51.333Z,19.15
2018-09-03T05:47:18.931Z,16.65
2018-09-03T05:49:46.549Z,15.75
2018-09-03T05:52:14.139Z,13.22
2018-09-03T05:54:41.676Z,13.15
2018-09-03T05:57:09.557Z,11.25
2018-09-03T05:59:37.188Z,9.55
2018-09-03T06:02:04.768Z,10.98
2018-09-03T06:04:32.455Z,10.05
2018-09-03T06:07:00.074Z,10.45
2018-09-03T06:09:27.640Z,11.43
2018-09-03T06:11:55.288Z,9.83
2018-09-03T06:14:22.824Z,13.85
2018-09-03T06:16:50.395Z,15.32
2018-09-03T06:19:18.043Z,16.30
2018-09-03T06:21:45.720Z,15.32
2018-09-03T06:24:13.358Z,14.85
2018-09-03T06:26:40.964Z,19.40
2018-09-03T06:29:08.593Z,21.48
2018-09-03T06:31:36.213Z,18.02
2018-09-03T06:34:03.792Z,21.93
2018-09-03T06:36:31.520Z,19.67
2018-09-03T06:38:59.137Z,19.15
2018-09-03T06:41:26.736Z,22.62
2018-09-03T06:43:54.379Z,22.60
2018-09-03T06:46:22.213Z,19.23
2018-09-03T06:48:49.791Z,20.70
2018-09-03T06:51:17.641Z,17.23
2018-09-03T06:53:45.518Z,13.80
2018-09-03T06:56:13.110Z,19.02
2018-09-03T06:58:40.774Z,20.12
2018-09-03T07:01:08.334Z,17.37
2018-09-03T07:03:35.945Z,18.62
2018-09-03T07:06:03.804Z,15.05
2018-09-03T07:08:31.358Z,22.10
2018-09-03T07:10:58.917Z,20.27
2018-09-03T07:13:26.559Z,17.75
2018-09-03T07:15:54.120Z,14.80
2018-09-03T07:18:21.726Z,16.83
2018-09-03T07:20:49.352Z,16.15
2018-09-03T07:23:16.913Z,16.45
2018-09-03T07:25:44.500Z,15.98
2018-09-03T07:28:12.131Z,14.93
2018-09-03T07:30:39.699Z,18.92
2018-09-03T07:33:07.254Z,16.07
2018-09-03T07:35:34.893Z,14.00
2018-09-03T07:38:02.452Z,14.47
2018-09-03T07:40:30.016Z,13.07
2018-09-03T07:42:57.711Z,13.30
2018-09-03T07:45:25.239Z,15.35
2018-09-03T07:47:52.951Z,16.77
2018-09-03T07:50:20.560Z,16.05
2018-09-03T07:52:48.462Z,15.65
2018-09-03T07:55:16.196Z,13.45
2018-09-03T07:57:43.816Z,11.53
2018-09-03T08:00:12.723Z,15.00
2018-09-03T08:02:40.263Z,14.03
2018-09-03T08:05:08.068Z,16.17
2018-09-03T08:07:35.705Z,14.07
2018-09-03T08:10:03.657Z,12.18
2018-09-03T08:12:31.268Z,10.63
2018-09-03T08:14:58.832Z,12.18
2018-09-03T08:17:26.431Z,10.13
2018-09-03T08:19:54.375Z,10.00
2018-09-03T08:22:21.966Z,11.78
2018-09-03T08:24:49.897Z,12.03
2018-09-03T08:27:17.711Z,13.28
2018-09-03T08:29:45.710Z,15.10
2018-09-03T08:32:13.316Z,13.40
2018-09-03T08:34:40.860Z,14.43
2018-09-03T08:37:08.465Z,10.32
2018-09-03T08:39:36.016Z,9.40
2018-09-03T08:42:03.606Z,13.38
2018-09-03T08:44:31.179Z,14.75
2018-09-03T08:46:58.793Z,14.25
2018-09-03T08:49:26.372Z,14.87
2018-09-03T08:51:53.996Z,11.63
2018-09-03T08:54:21.597Z,11.05
2018-09-03T08:56:49.200Z,11.78
2018-09-03T08:59:16.897Z,10.55
2018-09-03T09:01:44.460Z,12.13
2018-09-03T09:04:12.038Z,11.80
2018-09-03T09:06:39.690Z,11.22
2018-09-03T09:09:07.885Z,11.18
2018-09-03T09:11:35.519Z,11.65
2018-09-03T09:14:03.107Z,11.88
2018-09-03T09:16:30.777Z,9.83
2018-09-03T09:18:58.405Z,9.93
2018-09-03T09:21:25.999Z,10.88
2018-09-03T09:23:53.535Z,13.22
2018-09-03T09:26:21.152Z,12.55
2018-09-03T09:28:48.685Z,9.60
2018-09-03T09:31:16.216Z,8.80
2018-09-03T09:33:43.830Z,10.60
2018-09-03T09:36:11.388Z,9.88
2018-09-03T09:38:38.973Z,8.53
2018-09-03T09:41:06.756Z,8.95
2018-09-03T09:43:34.388Z,9.15
2018-09-03T09:46:01.961Z,10.85
2018-09-03T09:48:30.032Z,10.75
2018-09-03T09:50:57.646Z,11.57
2018-09-03T09:53:25.269Z,14.80
2018-09-03T09:55:52.942Z,16.73
2018-09-03T09:58:20.476Z,16.30
2018-09-03T10:00:53.767Z,14.40
2018-09-03T10:03:21.351Z,14.93
2018-09-03T10:05:48.878Z,12.20
2018-09-03T10:08:16.776Z,12.03
2018-09-03T10:10:44.371Z,11.55
2018-09-03T10:13:11.968Z,10.63
2018-09-03T10:15:39.571Z,10.05
2018-09-03T10:18:07.175Z,12.82
2018-09-03T10:20:34.770Z,14.38
2018-09-03T10:23:02.511Z,13.65
2018-09-03T10:25:30.109Z,12.85
2018-09-03T10:27:57.699Z,16.32
2018-09-03T10:30:25.473Z,15.83
2018-09-03T10:32:53.106Z,14.75
2018-09-03T10:35:20.704Z,14.75
2018-09-03T10:37:48.299Z,13.78
2018-09-03T10:40:15.920Z,14.40
2018-09-03T10:42:43.504Z,14.20
2018-09-03T10:45:11.150Z,11.68
2018-09-03T10:47:38.777Z,9.73
2018-09-03T10:50:06.416Z,9.20
2018-09-03T10:52:34.244Z,7.45
2018-09-03T10:55:02.152Z,8.70
2018-09-03T10:57:29.712Z,10.00
2018-09-03T10:59:57.316Z,9.60
2018-09-03T11:02:25.006Z,9.58
2018-09-03T11:04:52.573Z,9.58
2018-09-03T11:07:20.302Z,8.13
2018-09-03T11:09:47.903Z,7.00
2018-09-03T11:12:15.550Z,9.23
2018-09-03T11:14:43.161Z,10.90
2018-09-03T11:17:10.730Z,10.33
2018-09-03T11:19:44.377Z,11.80
2018-09-03T11:22:12.007Z,10.48
2018-09-03T11:24:39.524Z,12.53
2018-09-03T11:27:07.231Z,14.30
2018-09-03T11:29:34.885Z,12.43
2018-09-03T11:32:02.552Z,11.88
2018-09-03T11:34:30.227Z,10.93
2018-09-03T11:36:58.208Z,10.13
2018-09-03T11:39:25.830Z,10.53
2018-09-03T11:41:54.241Z,11.18
2018-09-03T11:44:21.827Z,10.80
2018-09-03T11:46:49.452Z,10.88
2018-09-03T11:49:17.036Z,12.53
2018-09-03T11:51:44.607Z,14.23
2018-09-03T11:54:12.449Z,13.03
2018-09-03T11:56:40.012Z,12.80
2018-09-03T11:59:07.577Z,12.50
2018-09-03T12:01:35.179Z,11.53
2018-09-03T12:04:02.781Z,10.58
2018-09-03T12:06:30.469Z,9.30
2018-09-03T12:08:58.165Z,9.13
2018-09-03T12:11:25.753Z,8.65
2018-09-03T12:13:53.599Z,8.80
2018-09-03T12:16:25.175Z,8.27
2018-09-03T12:18:55.064Z,8.80
2018-09-03T12:21:22.652Z,9.20
2018-09-03T12:23:50.244Z,9.45
2018-09-03T12:26:18.097Z,9.40
2018-09-03T12:28:45.685Z,7.67
2018-09-03T12:31:13.362Z,8.90
2018-09-03T12:33:41.190Z,8.28
2018-09-03T12:36:08.727Z,7.80
2018-09-03T12:38:36.289Z,8.65
2018-09-03T12:41:05.047Z,9.33
2018-09-03T12:43:32.709Z,8.10
2018-09-03T12:46:03.672Z,8.08
2018-09-03T12:48:31.711Z,8.35
2018-09-03T12:51:00.264Z,8.20
2018-09-03T12:53:28.084Z,7.05
2018-09-03T12:55:55.639Z,6.05
2018-09-03T12:58:23.237Z,8.00
2018-09-03T13:00:50.980Z,8.50
2018-09-03T13:03:18.498Z,6.47
2018-09-03T13:05:46.388Z,6.97
2018-09-03T13:08:14.056Z,6.55
2018-09-03T13:10:41.931Z,7.17
2018-09-03T13:13:09.533Z,7.30
2018-09-03T13:15:37.121Z,8.83
2018-09-03T13:18:04.854Z,7.50
2018-09-03T13:20:32.631Z,7.33
2018-09-03T13:23:00.468Z,6.25
2018-09-03T13:25:28.303Z,7.20
2018-09-03T13:27:55.894Z,7.95
2018-09-03T13:30:23.547Z,7.17
2018-09-03T13:32:51.454Z,6.30
2018-09-03T13:35:19.147Z,6.28
2018-09-03T13:37:46.791Z,5.40
2018-09-03T13:40:14.417Z,6.53
2018-09-03T13:42:41.985Z,5.75
2018-09-03T13:45:09.599Z,6.37
2018-09-03T13:47:37.138Z,6.08
2018-09-03T13:50:05.261Z,6.58
2018-09-03T13:52:33.069Z,7.92
2018-09-03T13:55:00.672Z,6.22
2018-09-03T13:57:28.226Z,5.87
2018-09-03T13:59:55.820Z,6.40
2018-09-03T14:02:23.360Z,6.60
2018-09-03T14:04:51.039Z,5.85
2018-09-03T14:07:18.600Z,5.83
2018-09-03T14:09:46.347Z,5.60
2018-09-03T14:12:14.078Z,7.20
2018-09-03T14:14:41.695Z,7.50
2018-09-03T14:17:09.334Z,7.40
2018-09-03T14:19:36.942Z,7.12
2018-09-03T14:22:04.815Z,7.67
2018-09-03T14:24:32.467Z,6.80
2018-09-03T14:27:00.140Z,6.20
2018-09-03T14:29:27.791Z,5.80
2018-09-03T14:31:55.369Z,5.85
2018-09-03T14:34:23.045Z,7.00
2018-09-03T14:36:51.026Z,5.95
2018-09-03T14:39:19.463Z,5.17
2018-09-03T14:41:47.125Z,5.78
2018-09-03T14:44:15.144Z,7.90
2018-09-03T14:46:42.706Z,7.47
2018-09-03T14:49:10.346Z,8.03
2018-09-03T14:51:37.980Z,8.13
2018-09-03T14:54:05.567Z,7.97
2018-09-03T14:56:33.385Z,7.08
2018-09-03T14:59:00.956Z,9.47
2018-09-03T15:01:28.533Z,9.08
2018-09-03T15:03:56.306Z,9.30
2018-09-03T15:06:23.905Z,8.78
2018-09-03T15:08:51.473Z,11.15
2018-09-03T15:11:19.116Z,10.60
2018-09-03T15:13:50.009Z,10.08
2018-09-03T15:16:17.874Z,10.03
2018-09-03T15:18:45.489Z,9.03
2018-09-03T15:21:13.054Z,8.90
2018-09-03T15:23:40.701Z,8.90
2018-09-03T15:26:08.355Z,6.85
2018-09-03T15:28:35.856Z,7.85
2018-09-03T15:31:03.467Z,8.48
2018-09-03T15:33:31.101Z,9.23
2018-09-03T15:35:58.696Z,7.55
2018-09-03T15:38:26.508Z,8.73
2018-09-03T15:40:54.247Z,9.30
2018-09-03T15:43:21.863Z,8.18
2018-09-03T15:45:49.367Z,8.03
2018-09-03T15:48:17.181Z,7.37
2018-09-03T15:50:44.795Z,6.92
2018-09-03T15:53:12.352Z,5.28
2018-09-03T15:55:40.000Z,5.97
2018-09-03T15:58:07.546Z,5.67
2018-09-03T16:00:35.117Z,7.03
2018-09-03T16:03:02.751Z,5.83
2018-09-03T16:05:30.271Z,6.10
2018-09-03T16:07:57.885Z,6.53
2018-09-03T16:10:25.459Z,6.83
2018-09-03T16:12:53.076Z,6.75
2018-09-03T16:15:20.728Z,6.13
2018-09-03T16:17:48.346Z,5.92
2018-09-03T16:20:15.881Z,6.25
2018-09-03T16:22:43.527Z,5.58
2018-09-03T16:25:11.132Z,4.90
2018-09-03T16:27:38.689Z,5.17
2018-09-03T16:30:06.368Z,5.53
2018-09-03T16:32:33.925Z,5.78
2018-09-03T16:35:01.515Z,6.30
2018-09-03T16:37:29.068Z,6.50
2018-09-03T16:39:56.856Z,6.12
2018-09-03T16:42:24.558Z,6.15
2018-09-03T16:44:52.246Z,6.92
2018-09-03T16:47:19.810Z,7.12
2018-09-03T16:49:47.392Z,6.67
2018-09-03T16:52:14.957Z,6.35
2018-09-03T16:54:42.513Z,5.75
2018-09-03T16:57:10.129Z,6.00
2018-09-03T16:59:37.688Z,5.30
2018-09-03T17:02:05.320Z,4.95
2018-09-03T17:04:32.932Z,5.10
2018-09-03T17:07:00.565Z,5.15
2018-09-03T17:09:28.446Z,5.22
2018-09-03T17:11:55.988Z,4.40
2018-09-03T17:14:24.102Z,4.45
2018-09-03T17:16:51.823Z,4.50
2018-09-03T17:19:19.425Z,3.83
2018-09-03T17:21:47.022Z,4.65
2018-09-03T17:24:14.683Z,5.33
2018-09-03T17:26:42.921Z,4.30
2018-09-03T17:29:10.461Z,4.08
2018-09-03T17:31:38.853Z,3.90
2018-09-03T17:34:06.428Z,4.92
2018-09-03T17:36:34.016Z,5.10
2018-09-03T17:39:01.625Z,4.95
2018-09-03T17:41:29.168Z,4.83
2018-09-03T17:43:56.793Z,5.00
2018-09-03T17:46:24.319Z,4.80
2018-09-03T17:48:51.895Z,4.90
2018-09-03T17:51:19.725Z,5.62
2018-09-03T17:53:47.390Z,6.15
2018-09-03T17:56:14.988Z,5.33
2018-09-03T17:58:42.723Z,5.05
2018-09-03T18:01:10.290Z,5.45
2018-09-03T18:03:37.998Z,4.50
2018-09-03T18:06:05.711Z,4.05
2018-09-03T18:08:33.314Z,4.10
2018-09-03T18:11:00.898Z,3.90
2018-09-03T18:13:28.446Z,4.25
2018-09-03T18:15:56.057Z,3.90
2018-09-03T18:18:23.697Z,4.20
2018-09-03T18:20:51.256Z,3.60
2018-09-03T18:23:18.848Z,5.00
2018-09-03T18:25:46.745Z,5.55
2018-09-03T18:28:14.720Z,4.90
2018-09-03T18:30:42.420Z,5.15
2018-09-03T18:33:10.331Z,5.42
2018-09-03T18:35:38.029Z,5.40
2018-09-03T18:38:05.620Z,4.70
2018-09-03T18:40:33.227Z,4.75
2018-09-03T18:43:00.876Z,4.78
2018-09-03T18:45:28.461Z,5.55
2018-09-03T18:47:56.234Z,5.30
2018-09-03T18:50:23.799Z,5.50
2018-09-03T18:52:51.437Z,4.83
2018-09-03T18:55:19.209Z,4.87
2018-09-03T18:57:46.775Z,4.87
2018-09-03T19:00:14.408Z,4.70
2018-09-03T19:02:41.930Z,4.97
2018-09-03T19:05:09.802Z,4.90
2018-09-03T19:07:37.759Z,4.60
2018-09-03T19:10:05.388Z,5.33
2018-09-03T19:12:33.217Z,4.97
2018-09-03T19:15:00.803Z,5.50
2018-09-03T19:17:28.378Z,4.87
2018-09-03T19:19:56.421Z,4.80
2018-09-03T19:22:24.359Z,5.90
2018-09-03T19:24:51.863Z,4.65
2018-09-03T19:27:19.643Z,4.92
2018-09-03T19:29:47.243Z,4.90
2018-09-03T19:32:15.169Z,5.17
2018-09-03T19:34:42.832Z,5.05
2018-09-03T19:37:10.427Z,4.58
2018-09-03T19:39:38.028Z,4.42
2018-09-03T19:42:05.882Z,5.07
2018-09-03T19:44:33.629Z,5.50
2018-09-03T19:47:01.248Z,5.00
2018-09-03T19:49:29.028Z,4.87
2018-09-03T19:51:56.645Z,4.50
2018-09-03T19:54:24.235Z,5.12
2018-09-03T19:56:52.129Z,5.97
2018-09-03T19:59:19.728Z,5.40
2018-09-03T20:01:47.379Z,5.75
2018-09-03T20:04:14.980Z,5.12
2018-09-03T20:06:42.648Z,4.87
2018-09-03T20:09:10.359Z,5.28
2018-09-03T20:11:38.392Z,5.70
2018-09-03T20:14:06.397Z,4.42
2018-09-03T20:16:34.020Z,4.58
2018-09-03T20:19:01.715Z,4.97
2018-09-03T20:21:29.312Z,5.12
2018-09-03T20:23:57.451Z,5.75
2018-09-03T20:26:25.022Z,6.25
2018-09-03T20:28:52.746Z,5.17
2018-09-03T20:31:20.336Z,5.30
2018-09-03T20:33:47.891Z,5.08
2018-09-03T20:36:15.939Z,5.60
2018-09-03T20:38:43.504Z,5.72
2018-09-03T20:41:11.077Z,5.28
2018-09-03T20:43:38.714Z,5.75
2018-09-03T20:46:06.320Z,5.25
2018-09-03T20:48:33.950Z,4.67
2018-09-03T20:51:02.102Z,5.00
2018-09-03T20:53:29.815Z,5.10
2018-09-03T20:55:57.355Z,4.15
2018-09-03T20:58:25.002Z,4.25
2018-09-03T21:00:52.539Z,5.15
2018-09-03T21:03:20.295Z,5.15
2018-09-03T21:05:47.849Z,5.05
2018-09-03T21:08:15.543Z,4.75
2018-09-03T21:10:43.129Z,4.90
2018-09-03T21:13:10.705Z,5.05
2018-09-03T21:15:38.394Z,4.60
2018-09-03T21:18:06.119Z,4.85
2018-09-03T21:20:33.728Z,5.80
2018-09-03T21:23:01.823Z,6.70
2018-09-03T21:25:29.402Z,6.10
2018-09-03T21:27:56.943Z,5.55
2018-09-03T21:30:24.961Z,5.17
2018-09-03T21:32:52.718Z,4.65
2018-09-03T21:35:20.425Z,5.58
2018-09-03T21:37:48.380Z,5.20
2018-09-03T21:40:16.386Z,5.33
2018-09-03T21:42:44.413Z,5.30
2018-09-03T21:45:11.956Z,4.97
2018-09-03T21:47:39.611Z,5.17
2018-09-03T21:50:07.636Z,4.25
2018-09-03T21:52:35.277Z,4.10
2018-09-03T21:55:02.847Z,4.30
2018-09-03T21:57:30.395Z,4.37
2018-09-03T21:59:58.019Z,3.98
2018-09-03T22:02:25.695Z,4.05
2018-09-03T22:04:53.252Z,3.62
2018-09-03T22:07:20.844Z,4.35
2018-09-03T22:09:48.413Z,3.47
2018-09-03T22:12:16.144Z,3.50
2018-09-03T22:14:43.691Z,3.52
2018-09-03T22:17:11.459Z,4.10
2018-09-03T22:19:39.041Z,3.60
2018-09-03T22:22:06.675Z,3.50
2018-09-03T22:24:34.364Z,3.62
2018-09-03T22:27:01.966Z,3.50
2018-09-03T22:29:29.545Z,4.33
2018-09-03T22:31:57.366Z,3.35
2018-09-03T22:34:24.951Z,3.75
2018-09-03T22:36:52.555Z,5.10
2018-09-03T22:39:20.470Z,4.50
2018-09-03T22:41:48.012Z,4.33
2018-09-03T22:44:15.574Z,4.20
2018-09-03T22:46:43.197Z,3.95
2018-09-03T22:49:10.781Z,3.45
2018-09-03T22:51:39.068Z,4.53
2018-09-03T22:54:06.654Z,3.37
2018-09-03T22:56:34.251Z,3.50
2018-09-03T22:59:01.800Z,4.33
2018-09-03T23:01:29.422Z,3.85
2018-09-03T23:03:57.134Z,3.95
2018-09-03T23:06:24.725Z,3.60
2018-09-03T23:08:52.310Z,4.87
2018-09-03T23:11:20.151Z,3.80
2018-09-03T23:13:47.732Z,3.55
2018-09-03T23:16:15.384Z,4.12
2018-09-03T23:18:43.503Z,4.33
2018-09-03T23:21:11.198Z,3.45
2018-09-03T23:23:38.812Z,3.80
2018-09-03T23:26:06.569Z,3.52
2018-09-03T23:28:34.138Z,3.60
2018-09-03T23:31:01.716Z,3.40
2018-09-03T23:33:29.336Z,3.00
2018-09-03T23:35:56.907Z,3.60
2018-09-03T23:38:24.453Z,3.60
2018-09-03T23:40:52.060Z,3.92
2018-09-03T23:43:19.629Z,3.87
2018-09-03T23:45:47.228Z,3.00
2018-09-03T23:48:15.008Z,3.52
2018-09-03T23:50:42.632Z,3.80
2018-09-03T23:53:10.284Z,3.52
2018-09-03T23:55:37.936Z,3.50
2018-09-03T23:58:05.605Z,3.65
